Time;durP1;ratioP1;P1;durP2;ratioP2;P2;SDS_P1;SDS_P2;PMS_P1;PMS_P2;Temp;Humidity;BMP_temperature;BMP_pressure;BME280_temperature;BME280_humidity;BME280_pressure;Samples;Min_cycle;Max_cycle;Signal;HPM_P1;HPM_P2
2021/12/28 00:00:34;;;;;;;202.25;77.27;;;;;;;-11.46;78.68;101244.77;1679189;85;21141;-80
2021/12/28 00:03:03;;;;;;;205.27;77.58;;;;;;;-11.46;78.69;101244.77;1679076;85;21671;-80
2021/12/28 00:05:29;;;;;;;215.03;80.97;;;;;;;-11.48;78.53;101241.14;1679807;84;21134;-79
2021/12/28 00:07:56;;;;;;;210.35;78.72;;;;;;;-11.45;78.74;101237.30;1679584;84;21932;-79
2021/12/28 00:10:25;;;;;;;202.97;76.85;;;;;;;-11.42;78.74;101238.05;1658165;85;21102;-78
2021/12/28 00:12:51;;;;;;;199.62;77.05;;;;;;;-11.45;78.65;101232.22;1679342;83;21102;-80
2021/12/28 00:17:59;;;;;;;;;;;;;;;-11.50;78.55;101228.25;1681984;83;21580;-78
2021/12/28 00:20:46;;;;;;;;;;;;;;;-11.50;78.53;101217.16;1681873;84;21911;-78
2021/12/28 00:26:04;;;;;;;187.05;73.33;;;;;;;-11.55;78.41;101214.09;1661063;84;21093;-76
2021/12/28 00:28:30;;;;;;;198.72;79.50;;;;;;;-11.55;78.48;101212.81;1660846;86;21232;-76
2021/12/28 00:30:57;;;;;;;203.02;78.07;;;;;;;-11.57;78.47;101212.63;1660782;86;21083;-76
2021/12/28 00:33:24;;;;;;;215.97;79.82;;;;;;;-11.57;78.60;101215.17;1660854;86;21686;-76
2021/12/28 00:35:51;;;;;;;215.22;82.37;;;;;;;-11.55;78.62;101214.09;1660729;86;21110;-76
2021/12/28 00:38:22;;;;;;;210.32;78.12;;;;;;;-11.56;78.47;101217.00;1660750;86;21655;-76
2021/12/28 00:40:52;;;;;;;220.33;86.28;;;;;;;-11.61;78.27;101213.37;1660861;86;21184;-76
2021/12/28 00:43:19;;;;;;;215.52;86.28;;;;;;;-11.65;78.09;101213.73;1660441;86;21154;-76
2021/12/28 00:45:45;;;;;;;220.73;84.83;;;;;;;-11.65;78.16;101201.03;1660741;86;21910;-76
2021/12/28 00:48:12;;;;;;;226.62;85.57;;;;;;;-11.67;78.17;101209.73;1660898;86;21307;-76
2021/12/28 00:50:39;;;;;;;227.05;83.65;;;;;;;-11.69;78.23;101209.91;1660704;86;21183;-76
2021/12/28 00:53:05;;;;;;;230.57;87.27;;;;;;;-11.70;78.22;101218.61;1660947;86;21636;-76
2021/12/28 00:55:32;;;;;;;215.47;87.47;;;;;;;-11.72;78.22;101217.16;1661164;86;21066;-76
2021/12/28 00:57:58;;;;;;;216.25;83.75;;;;;;;-11.72;78.23;101224.77;1661019;86;21760;-76
2021/12/28 01:00:29;;;;;;;215.95;86.65;;;;;;;-11.74;78.15;101214.80;1661055;86;21376;-76
2021/12/28 01:02:56;;;;;;;211.72;83.40;;;;;;;-11.80;77.95;101213.70;1687537;82;21610;-76
2021/12/28 01:05:23;;;;;;;223.80;85.80;;;;;;;-11.81;77.91;101216.05;1738495;81;21444;-76
2021/12/28 01:07:49;;;;;;;215.77;85.28;;;;;;;-11.82;78.01;101221.86;1738435;82;21089;-76
2021/12/28 01:10:21;;;;;;;213.25;82.05;;;;;;;-11.82;78.05;101223.13;1738287;82;21738;-75
2021/12/28 01:12:49;;;;;;;214.05;84.77;;;;;;;-11.82;78.02;101214.25;1738345;82;21082;-76
2021/12/28 01:15:16;;;;;;;201.58;79.45;;;;;;;-11.83;77.97;101208.61;1738231;81;21082;-76
2021/12/28 01:17:43;;;;;;;208.68;83.00;;;;;;;-11.86;77.91;101209.16;1738241;82;21035;-75
2021/12/28 01:20:10;;;;;;;212.97;86.95;;;;;;;-11.88;77.85;101209.30;1738452;82;21161;-76
2021/12/28 01:22:37;;;;;;;210.55;84.37;;;;;;;-11.89;77.87;101202.44;1738546;81;22599;-76
2021/12/28 01:25:05;;;;;;;229.60;83.90;;;;;;;-11.90;77.95;101201.91;1742606;81;21089;-76
2021/12/28 01:27:31;;;;;;;205.65;79.10;;;;;;;-11.86;78.03;101199.00;1746591;81;21069;-76
2021/12/28 01:29:58;;;;;;;219.22;85.00;;;;;;;-11.87;77.95;101193.74;1716613;82;21073;-76
2021/12/28 01:32:25;;;;;;;211.00;81.70;;;;;;;-11.91;77.85;101185.25;1746299;82;21073;-80
2021/12/28 01:34:51;;;;;;;204.57;84.25;;;;;;;-11.97;77.81;101178.70;1746537;82;21734;-80
2021/12/28 01:37:18;;;;;;;215.12;82.67;;;;;;;-11.98;77.80;101176.88;1746476;82;21053;-80
2021/12/28 01:39:45;;;;;;;214.05;82.27;;;;;;;-11.97;77.95;101169.82;1746301;82;21136;-80
2021/12/28 01:42:11;;;;;;;219.77;82.42;;;;;;;-11.94;78.02;101166.73;1746543;82;21066;-80
2021/12/28 01:44:38;;;;;;;210.60;80.50;;;;;;;-11.93;78.05;101167.30;1746658;80;21185;-80
2021/12/28 01:47:05;;;;;;;205.03;77.70;;;;;;;-11.94;77.93;101156.58;1746489;81;21752;-81
2021/12/28 01:49:31;;;;;;;208.30;81.75;;;;;;;-11.99;77.87;101151.30;1746455;82;21061;-81
2021/12/28 01:51:58;;;;;;;212.70;83.35;;;;;;;-11.98;77.90;101153.14;1746163;82;21027;-80
2021/12/28 01:54:25;;;;;;;216.70;83.27;;;;;;;-11.99;77.95;101151.30;1746710;82;21154;-80
2021/12/28 01:56:51;;;;;;;221.50;84.67;;;;;;;-11.98;77.97;101138.80;1746985;81;21073;-81
2021/12/28 01:59:20;;;;;;;224.55;83.82;;;;;;;-12.00;77.84;101136.45;1746493;82;22415;-82
2021/12/28 02:01:47;;;;;;;221.60;85.10;;;;;;;-11.98;77.91;101134.09;1746208;82;21112;-81
2021/12/28 02:04:23;;;;;;;212.97;82.80;;;;;;;-11.98;77.98;101122.67;1746403;81;21582;-81
2021/12/28 02:06:50;;;;;;;209.90;80.85;;;;;;;-11.96;77.92;101122.50;1746611;82;21015;-81
2021/12/28 02:09:17;;;;;;;199.15;75.55;;;;;;;-11.95;78.06;101118.87;1746607;82;21077;-82
2021/12/28 02:11:44;;;;;;;184.55;70.90;;;;;;;-11.92;78.09;101118.32;1746327;82;22559;-81
2021/12/28 02:14:11;;;;;;;199.75;77.35;;;;;;;-11.91;78.08;101107.83;1746342;81;21113;-81
2021/12/28 02:16:41;;;;;;;181.43;68.22;;;;;;;-11.92;78.08;101109.44;1746610;80;21273;-81
2021/12/28 02:19:08;;;;;;;175.55;69.60;;;;;;;-11.87;78.23;101108.33;1746519;80;21069;-81
2021/12/28 02:21:35;;;;;;;207.98;75.90;;;;;;;-11.81;78.36;101105.23;1746692;81;21058;-81
2021/12/28 02:24:04;;;;;;;209.60;77.27;;;;;;;-11.81;78.23;101105.23;1746655;82;22551;-81
2021/12/28 02:26:31;;;;;;;191.50;74.20;;;;;;;-11.83;78.05;101094.37;1743706;81;21073;-81
2021/12/28 02:28:58;;;;;;;185.35;75.35;;;;;;;-11.84;78.05;101099.81;1743575;82;21058;-81
2021/12/28 02:31:25;;;;;;;184.72;72.72;;;;;;;-11.85;77.91;101096.72;1743331;82;21050;-81
2021/12/28 02:33:52;;;;;;;191.80;67.55;;;;;;;-11.89;77.84;101095.81;1743660;82;21100;-81
2021/12/28 02:36:19;;;;;;;182.12;68.12;;;;;;;-11.90;77.80;101096.93;1743856;82;21737;-80
2021/12/28 02:38:45;;;;;;;170.12;65.42;;;;;;;-11.93;77.83;101088.61;1743578;82;21094;-81
2021/12/28 02:41:12;;;;;;;163.05;65.35;;;;;;;-11.94;77.80;101086.78;1743553;82;21629;-81
2021/12/28 02:43:40;;;;;;;171.22;65.00;;;;;;;-11.99;77.64;101090.05;1743425;82;21767;-80
2021/12/28 02:46:07;;;;;;;173.28;66.77;;;;;;;-12.00;77.70;101086.95;1743549;82;21085;-80
2021/12/28 02:48:34;;;;;;;165.10;63.90;;;;;;;-12.04;77.59;101089.86;1743882;82;21801;-81
2021/12/28 02:51:15;;;;;;;173.97;64.85;;;;;;;-12.11;77.40;101088.58;1743020;82;21198;-81
2021/12/28 02:53:43;;;;;;;153.53;61.55;;;;;;;-12.19;77.38;101091.84;1743229;81;21061;-80
2021/12/28 02:56:10;;;;;;;164.15;61.28;;;;;;;-12.20;77.48;101082.06;1743826;82;21609;-81
2021/12/28 02:58:40;;;;;;;168.80;61.95;;;;;;;-12.20;77.64;101081.14;1743805;82;21250;-81
2021/12/28 03:01:13;;;;;;;174.62;64.67;;;;;;;-12.19;77.76;101079.16;1743648;81;21724;-81
2021/12/28 03:03:40;;;;;;;;;;;;;;;-12.16;77.84;101078.23;1746561;82;21385;-80
2021/12/28 03:06:09;;;;;;;144.00;54.50;;;;;;;-12.16;77.86;101076.63;1743508;82;20247;-81
2021/12/28 03:08:38;;;;;;;149.38;53.68;;;;;;;-12.16;77.94;101079.50;1743431;82;21179;-81
2021/12/28 03:11:05;;;;;;;141.90;54.70;;;;;;;-12.15;77.95;101078.80;1743240;82;21411;-81
2021/12/28 03:13:41;;;;;;;150.70;55.70;;;;;;;-12.16;78.00;101076.63;1743149;82;21734;-81
2021/12/28 03:16:07;;;;;;;143.30;54.75;;;;;;;-12.11;78.25;101077.53;1743031;82;21054;-81
2021/12/28 03:18:34;;;;;;;136.85;53.78;;;;;;;-12.07;78.25;101077.16;1743434;82;21070;-81
2021/12/28 03:21:02;;;;;;;144.45;54.23;;;;;;;-12.07;78.24;101075.52;1743621;82;21093;-81
2021/12/28 03:23:28;;;;;;;129.93;51.15;;;;;;;-12.02;78.40;101074.45;1743933;82;21015;-81
2021/12/28 03:25:55;;;;;;;132.12;52.70;;;;;;;-12.00;78.34;101065.38;1740554;81;21736;-81
2021/12/28 03:28:25;;;;;;;136.00;53.85;;;;;;;-11.98;78.38;101058.86;1738554;81;21662;-81
2021/12/28 03:30:52;;;;;;;136.65;50.05;;;;;;;-11.96;78.38;101053.59;1738880;81;21066;-81
2021/12/28 03:33:20;;;;;;;125.12;50.10;;;;;;;-11.94;78.38;101047.06;1738950;82;21605;-81
2021/12/28 03:35:46;;;;;;;126.70;48.98;;;;;;;-11.91;78.34;101038.03;1738770;82;21093;-81
2021/12/28 03:38:13;;;;;;;125.90;48.02;;;;;;;-11.89;78.40;101037.44;1738859;81;21916;-81
2021/12/28 03:40:40;;;;;;;130.22;47.65;;;;;;;-11.86;78.42;101040.68;1738709;82;21181;-81
2021/12/28 03:43:07;;;;;;;121.53;46.85;;;;;;;-11.87;78.24;101037.63;1738772;82;21054;-81
2021/12/28 03:45:33;;;;;;;125.35;46.45;;;;;;;-11.88;78.21;101031.98;1738872;82;21139;-81
2021/12/28 03:48:00;;;;;;;124.18;47.03;;;;;;;-11.88;78.23;101034.52;1738577;82;21636;-81
2021/12/28 03:50:27;;;;;;;128.23;46.80;;;;;;;-12.08;78.23;101000.51;1738383;81;23038;-82
2021/12/28 03:52:54;;;;;;;120.25;46.70;;;;;;;-11.85;78.31;101028.55;1738296;82;21128;-81
2021/12/28 03:55:23;;;;;;;118.75;42.33;;;;;;;-11.79;78.37;101039.41;1737943;82;21595;-81
2021/12/28 03:57:51;;;;;;;112.60;43.35;;;;;;;-11.80;78.24;101033.81;1738233;81;21101;-81
2021/12/28 04:00:20;;;;;;;114.57;42.10;;;;;;;-11.77;78.26;101034.15;1738645;82;21098;-81
2021/12/28 04:02:46;;;;;;;103.10;40.63;;;;;;;-11.76;78.28;101030.52;1738664;81;21672;-81
2021/12/28 04:05:13;;;;;;;102.25;38.78;;;;;;;-11.75;78.24;101031.08;1738620;81;21086;-80
2021/12/28 04:07:40;;;;;;;106.00;40.05;;;;;;;-11.76;78.26;101033.06;1738849;82;21122;-81
2021/12/28 04:10:09;;;;;;;98.10;39.67;;;;;;;-11.69;78.44;101029.96;1738665;81;21082;-80
2021/12/28 04:12:36;;;;;;;102.00;39.42;;;;;;;-11.61;78.53;101019.98;1738859;82;21583;-81
2021/12/28 04:15:02;;;;;;;106.25;41.10;;;;;;;-11.45;78.72;101011.22;1738901;82;21730;-80
2021/12/28 04:17:31;;;;;;;105.70;39.75;;;;;;;-11.27;78.86;101007.73;1738791;82;21121;-80
2021/12/28 04:19:57;;;;;;;117.40;41.70;;;;;;;-11.11;78.91;101011.65;1738889;81;21090;-81
2021/12/28 04:22:24;;;;;;;101.90;40.83;;;;;;;-10.96;78.98;101008.30;1738943;81;21054;-81
2021/12/28 04:24:51;;;;;;;101.55;40.15;;;;;;;-10.82;78.96;101009.52;1738983;81;21073;-81
2021/12/28 04:27:18;;;;;;;97.12;38.92;;;;;;;-10.67;79.00;101008.17;1741864;80;21774;-82
2021/12/28 04:29:46;;;;;;;109.07;39.67;;;;;;;-10.54;78.95;101007.91;1741805;82;21129;-81
2021/12/28 04:32:13;;;;;;;91.15;37.55;;;;;;;-10.45;78.94;101001.31;1741730;82;21187;-82
2021/12/28 04:34:39;;;;;;;96.87;37.13;;;;;;;-10.32;79.02;101000.66;1741622;80;21109;-81
2021/12/28 04:37:06;;;;;;;105.67;40.33;;;;;;;-10.21;79.06;100995.43;1741371;81;21152;-81
2021/12/28 04:39:32;;;;;;;115.82;46.25;;;;;;;-10.14;78.83;101000.84;1741400;82;21201;-81
2021/12/28 04:41:59;;;;;;;120.35;50.03;;;;;;;-10.07;78.80;101009.33;1741097;82;21110;-81
2021/12/28 04:44:26;;;;;;;122.95;51.13;;;;;;;-10.00;78.82;101005.83;1741094;82;33170;-82
2021/12/28 04:46:54;;;;;;;121.67;51.58;;;;;;;-9.89;78.94;101013.00;1741229;82;21626;-82
2021/12/28 04:49:23;;;;;;;116.10;47.75;;;;;;;-9.84;78.82;101008.02;1741646;82;21100;-82
2021/12/28 04:51:50;;;;;;;124.18;45.35;;;;;;;-9.76;78.68;101003.75;1741550;81;21766;-82
2021/12/28 04:54:17;;;;;;;125.02;46.18;;;;;;;-9.76;78.47;101010.13;1741529;82;21073;-82
2021/12/28 04:56:45;;;;;;;130.85;46.48;;;;;;;-9.73;78.44;101011.74;1741201;82;21058;-82
2021/12/28 04:59:14;;;;;;;114.52;43.00;;;;;;;-9.72;78.45;101008.47;1741381;82;21125;-81
2021/12/28 05:01:41;;;;;;;104.83;41.50;;;;;;;-9.67;78.43;101012.40;1741656;82;21081;-79
2021/12/28 05:04:07;;;;;;;118.40;46.02;;;;;;;-9.66;78.41;101006.58;1741372;82;21714;-81
2021/12/28 05:06:35;;;;;;;123.18;44.73;;;;;;;-9.62;78.36;100994.70;1741483;82;21054;-81
2021/12/28 05:09:07;;;;;;;117.75;44.00;;;;;;;-9.61;78.31;100991.78;1741522;82;21568;-81
2021/12/28 05:11:34;;;;;;;125.53;45.03;;;;;;;-9.59;78.29;100982.31;1741540;82;27530;-76
2021/12/28 05:14:01;;;;;;;112.55;43.35;;;;;;;-9.64;78.10;100974.53;1741189;80;21093;-76
2021/12/28 05:16:30;;;;;;;108.37;42.88;;;;;;;-9.62;78.08;100980.69;1741283;81;21749;-76
2021/12/28 05:18:57;;;;;;;111.60;41.42;;;;;;;-9.59;78.21;100976.28;1741082;81;21094;-76
2021/12/28 05:21:24;;;;;;;106.05;42.78;;;;;;;-9.54;78.26;100977.69;1741176;82;21136;-76
2021/12/28 05:23:53;;;;;;;105.35;44.30;;;;;;;-9.52;78.10;100974.94;1741071;82;21114;-77
2021/12/28 05:26:23;;;;;;;110.03;44.25;;;;;;;-9.60;77.91;100967.75;1748873;81;21626;-78
2021/12/28 05:28:49;;;;;;;108.63;43.52;;;;;;;-9.64;77.85;100954.53;1769724;79;21750;-76
2021/12/28 05:31:15;;;;;;;119.42;49.18;;;;;;;-9.68;77.74;100959.66;1768124;80;21052;-76
2021/12/28 05:33:42;;;;;;;135.28;54.85;;;;;;;-9.71;77.89;100954.22;1768193;81;21078;-77
2021/12/28 05:36:09;;;;;;;143.40;57.38;;;;;;;-9.73;77.78;100956.08;1768185;81;21261;-77
2021/12/28 05:38:35;;;;;;;131.18;52.30;;;;;;;-9.73;77.94;100952.26;1768429;80;21093;-77
2021/12/28 05:41:02;;;;;;;127.72;49.90;;;;;;;-9.71;77.99;100945.30;1768236;81;21798;-77
2021/12/28 05:43:29;;;;;;;137.35;52.27;;;;;;;-9.69;77.97;100945.09;1768318;81;21195;-77
2021/12/28 05:45:55;;;;;;;115.72;48.68;;;;;;;-9.62;78.09;100939.93;1768226;81;21598;-76
2021/12/28 05:48:25;;;;;;;115.12;45.75;;;;;;;-9.63;77.98;100939.75;1768486;80;21055;-76
2021/12/28 05:50:52;;;;;;;105.52;42.13;;;;;;;-9.62;78.01;100944.12;1771600;80;21090;-76
2021/12/28 05:53:18;;;;;;;100.15;36.93;;;;;;;-9.62;78.01;100938.66;1771678;80;21766;-76
2021/12/28 05:55:45;;;;;;;99.00;41.92;;;;;;;-9.63;78.02;100936.86;1771757;80;21474;-75
2021/12/28 05:58:12;;;;;;;99.60;40.25;;;;;;;-9.58;78.14;100933.52;1771584;80;21070;-75
2021/12/28 06:00:38;;;;;;;108.52;43.52;;;;;;;-9.55;78.14;100930.38;1721217;83;21055;-80
2021/12/28 06:03:05;;;;;;;97.17;39.73;;;;;;;-9.53;78.20;100927.28;1772106;80;21117;-78
2021/12/28 06:05:32;;;;;;;96.37;38.08;;;;;;;-9.49;78.16;100925.59;1772484;80;21766;-82
2021/12/28 06:07:58;;;;;;;91.97;36.58;;;;;;;-9.48;78.11;100916.29;1739678;81;21528;-81
2021/12/28 06:10:25;;;;;;;95.22;36.40;;;;;;;-9.47;78.10;100913.02;1766396;81;21090;-82
2021/12/28 06:12:52;;;;;;;95.90;38.75;;;;;;;-9.46;78.16;100911.91;1765995;81;21171;-82
2021/12/28 06:15:18;;;;;;;94.50;36.38;;;;;;;-9.44;78.27;100914.25;1766756;80;21071;-84
2021/12/28 06:17:45;;;;;;;78.87;32.98;;;;;;;-9.39;78.33;100913.06;1766682;81;21681;-81
2021/12/28 06:20:12;;;;;;;83.27;35.05;;;;;;;-9.33;78.50;100902.99;1766339;81;21047;-82
2021/12/28 06:22:38;;;;;;;76.62;33.00;;;;;;;-9.27;78.57;100899.46;1766406;81;21175;-82
2021/12/28 06:25:07;;;;;;;105.10;38.78;;;;;;;-9.22;78.53;100898.66;1766275;81;21148;-81
2021/12/28 06:27:34;;;;;;;114.08;43.98;;;;;;;-9.19;78.53;100898.98;1761167;81;21145;-81
2021/12/28 06:30:00;;;;;;;92.33;35.50;;;;;;;-9.11;78.71;100892.14;1760679;81;21924;-81
2021/12/28 06:32:27;;;;;;;110.12;40.28;;;;;;;-9.05;78.73;100894.94;1761019;81;21402;-81
2021/12/28 06:34:54;;;;;;;85.40;35.17;;;;;;;-9.04;78.77;100896.77;1760826;81;21110;-81
2021/12/28 06:37:20;;;;;;;82.12;32.55;;;;;;;-8.92;78.91;100903.50;1760949;81;21059;-82
2021/12/28 06:39:47;;;;;;;92.08;31.45;;;;;;;-8.85;79.01;100897.02;1760597;81;21078;-80
2021/12/28 06:42:13;;;;;;;86.15;33.45;;;;;;;-8.74;79.09;100894.70;1760464;81;21757;-80
2021/12/28 06:44:43;;;;;;;87.78;34.60;;;;;;;-8.70;79.09;100895.54;1760566;81;21008;-80
2021/12/28 06:47:08;;;;;;;77.05;33.10;;;;;;;-8.59;79.18;100896.27;1760447;81;21058;-81
2021/12/28 06:49:35;;;;;;;80.77;33.40;;;;;;;-8.52;79.24;100896.16;1760661;81;21055;-80
2021/12/28 06:52:02;;;;;;;81.90;32.67;;;;;;;-8.45;79.19;100897.67;1761367;80;21348;-86
2021/12/28 06:54:29;;;;;;;74.25;30.72;;;;;;;-8.40;79.09;100895.19;1765607;80;21778;-81
2021/12/28 06:56:55;;;;;;;74.22;33.83;;;;;;;-8.35;79.01;100896.57;1762806;80;21508;-80
2021/12/28 06:59:22;;;;;;;84.62;37.70;;;;;;;-8.29;79.18;100892.46;1747052;81;21070;-81
2021/12/28 07:01:49;;;;;;;78.60;32.80;;;;;;;-8.22;79.35;100897.41;1775899;79;22322;-81
2021/12/28 07:04:15;;;;;;;87.75;37.70;;;;;;;-8.15;79.25;100891.29;1776706;80;21033;-77
2021/12/28 07:06:42;;;;;;;85.25;35.30;;;;;;;-8.10;79.21;100895.22;1777993;80;21743;-77
2021/12/28 07:09:08;;;;;;;83.52;35.88;;;;;;;-8.05;79.20;100884.72;1778368;80;21101;-81
2021/12/28 07:11:36;;;;;;;95.87;39.67;;;;;;;-8.02;79.22;100883.72;1778343;80;21717;-78
2021/12/28 07:14:06;;;;;;;87.88;38.30;;;;;;;-7.94;79.20;100884.87;1777884;80;21047;-78
2021/12/28 07:16:32;;;;;;;85.00;35.35;;;;;;;-7.92;79.11;100875.36;1778253;80;21093;-77
2021/12/28 07:19:02;;;;;;;79.32;35.30;;;;;;;-7.90;79.03;100874.20;1777905;80;22481;-77
2021/12/28 07:21:29;;;;;;;77.55;33.05;;;;;;;-7.86;79.11;100872.52;1778242;80;21058;-77
2021/12/28 07:23:55;;;;;;;77.58;31.55;;;;;;;-7.80;79.15;100868.00;1778171;80;21570;-76
2021/12/28 07:26:22;;;;;;;74.03;32.73;;;;;;;-7.78;79.08;100860.11;1772092;80;21132;-77
2021/12/28 07:28:49;;;;;;;72.32;30.88;;;;;;;-7.76;79.05;100858.61;1751753;80;21058;-75
2021/12/28 07:31:15;;;;;;;81.87;37.65;;;;;;;-7.69;79.16;100855.91;1752026;81;22499;-75
2021/12/28 07:33:44;;;;;;;69.40;31.62;;;;;;;-7.65;79.17;100856.73;1751489;81;21084;-75
2021/12/28 07:36:11;;;;;;;76.33;32.38;;;;;;;-7.63;79.17;100859.44;1752352;80;21759;-77
2021/12/28 07:38:37;;;;;;;71.15;33.38;;;;;;;-7.61;79.12;100852.83;1751927;81;21072;-76
2021/12/28 07:41:04;;;;;;;80.77;34.40;;;;;;;-7.58;79.13;100847.09;1748160;80;21074;-77
2021/12/28 07:43:31;;;;;;;70.25;31.97;;;;;;;-7.56;79.19;100843.96;1752196;81;21749;-76
2021/12/28 07:45:57;;;;;;;69.75;31.55;;;;;;;-7.53;79.13;100851.91;1752177;80;21137;-76
2021/12/28 07:48:24;;;;;;;71.62;31.05;;;;;;;-7.58;79.13;100837.80;1752008;81;21355;-77
2021/12/28 07:50:50;;;;;;;85.20;35.45;;;;;;;-7.53;79.16;100844.23;1752324;81;21616;-78
2021/12/28 07:53:17;;;;;;;86.70;34.67;;;;;;;-7.51;79.21;100838.90;1752579;81;21121;-75
2021/12/28 07:55:44;;;;;;;90.10;36.20;;;;;;;-7.48;79.27;100835.38;1752505;81;21641;-74
2021/12/28 07:58:10;;;;;;;85.25;34.40;;;;;;;-7.41;79.41;100836.89;1751958;81;21053;-75
2021/12/28 08:00:37;;;;;;;90.53;36.73;;;;;;;-7.36;79.40;100827.98;1751959;81;21061;-74
2021/12/28 08:03:04;;;;;;;83.15;34.92;;;;;;;-7.31;79.42;100827.17;1751886;81;21590;-75
2021/12/28 08:05:33;;;;;;;86.70;34.80;;;;;;;-7.31;79.30;100825.50;1752142;81;21089;-75
2021/12/28 08:08:00;;;;;;;88.87;34.25;;;;;;;-7.30;79.35;100825.12;1752177;81;21747;-76
2021/12/28 08:10:26;;;;;;;78.35;32.73;;;;;;;-7.23;79.54;100824.96;1752041;81;21598;-77
2021/12/28 08:12:56;;;;;;;70.42;31.45;;;;;;;-7.15;79.58;100823.14;1752253;81;21029;-76
2021/12/28 08:15:26;;;;;;;74.05;32.25;;;;;;;-7.12;79.55;100816.66;1752297;81;21100;-75
2021/12/28 08:17:54;;;;;;;69.77;31.85;;;;;;;-7.06;79.72;100818.91;1752521;81;21128;-77
2021/12/28 08:20:22;;;;;;;81.90;34.88;;;;;;;-6.93;79.88;100819.70;1752313;81;21797;-83
2021/12/28 08:22:49;;;;;;;93.27;37.65;;;;;;;-6.91;79.81;100821.64;1752528;81;21145;-84
2021/12/28 08:25:18;;;;;;;87.30;38.42;;;;;;;-6.81;80.03;100817.39;1752334;81;21670;-81
2021/12/28 08:27:45;;;;;;;95.67;39.70;;;;;;;-6.69;80.15;100813.06;1751976;80;21092;-80
2021/12/28 08:30:12;;;;;;;90.38;38.23;;;;;;;-6.59;80.31;100810.09;1739145;81;21093;-84
2021/12/28 08:32:40;;;;;;;83.92;36.53;;;;;;;-6.52;80.41;100799.28;1722514;81;22579;-85
2021/12/28 08:35:07;;;;;;;81.87;37.65;;;;;;;-6.40;80.54;100791.86;1722901;83;21096;-82
2021/12/28 08:37:34;;;;;;;79.90;36.05;;;;;;;-6.28;80.76;100795.53;1722106;83;21075;-82
2021/12/28 08:40:01;;;;;;;87.60;40.92;;;;;;;-6.13;80.97;100783.23;1722100;83;21157;-83
2021/12/28 08:42:27;;;;;;;77.15;35.58;;;;;;;-5.98;80.99;100781.56;1722178;83;21089;-82
2021/12/28 08:44:54;;;;;;;76.85;37.33;;;;;;;-5.87;80.94;100768.91;1722097;83;21698;-80
2021/12/28 08:47:26;;;;;;;73.52;34.83;;;;;;;-5.78;80.99;100766.64;1733140;81;21276;-81
2021/12/28 08:49:50;;;;;;;73.00;37.40;;;;;;;-5.67;81.06;100765.94;1742754;81;21581;-80
2021/12/28 08:52:16;;;;;;;83.97;36.35;;;;;;;-5.56;81.17;100764.34;1705937;83;21156;-81
2021/12/28 08:54:43;;;;;;;79.55;38.85;;;;;;;-5.47;81.22;100758.74;1746448;81;21653;-80
2021/12/28 08:57:10;;;;;;;79.92;37.10;;;;;;;-5.39;81.12;100764.55;1748433;81;22560;-81
2021/12/28 08:59:36;;;;;;;74.58;36.40;;;;;;;-5.33;81.08;100767.29;1744379;81;21065;-84
2021/12/28 09:02:03;;;;;;;76.02;35.70;;;;;;;-5.24;81.21;100764.61;1741761;80;21085;-77
2021/12/28 09:04:30;;;;;;;81.82;35.80;;;;;;;-5.16;81.22;100761.43;1754911;80;21144;-77
2021/12/28 09:06:57;;;;;;;77.27;35.73;;;;;;;-5.09;81.13;100754.42;1730100;81;21081;-78
2021/12/28 09:09:23;;;;;;;71.97;36.17;;;;;;;-4.98;81.23;100748.91;1741950;81;22573;-78
2021/12/28 09:11:50;;;;;;;86.35;40.70;;;;;;;-4.93;81.02;100747.66;1741785;80;21128;-80
2021/12/28 09:14:17;;;;;;;84.03;39.13;;;;;;;-4.84;81.07;100744.06;1755205;81;21084;-78
2021/12/28 09:16:43;;;;;;;83.42;37.85;;;;;;;-4.75;81.07;100732.02;1755362;81;21137;-80
2021/12/28 09:19:10;;;;;;;78.05;37.23;;;;;;;-4.67;81.01;100727.17;1753766;81;21129;-81
2021/12/28 09:21:37;;;;;;;73.83;35.00;;;;;;;-4.63;80.88;100727.05;1741961;81;21768;-80
2021/12/28 09:24:04;;;;;;;80.67;38.23;;;;;;;-4.60;80.77;100729.50;1737348;81;21135;-76
2021/12/28 09:26:30;;;;;;;115.42;52.80;;;;;;;-4.62;80.56;100735.25;1739062;81;21108;-76
2021/12/28 09:28:57;;;;;;;99.15;45.80;;;;;;;-4.62;80.67;100727.55;1745848;80;21101;-75
2021/12/28 09:31:24;;;;;;;89.22;41.75;;;;;;;-4.59;80.71;100726.53;1741872;81;21116;-79
2021/12/28 09:33:50;;;;;;;79.72;38.58;;;;;;;-4.56;80.69;100717.78;1743512;81;21745;-80
2021/12/28 09:36:18;;;;;;;80.20;38.75;;;;;;;-4.54;80.62;100717.55;1737097;81;21077;-80
2021/12/28 09:38:45;;;;;;;83.37;40.65;;;;;;;-4.54;80.56;100719.73;1728892;81;21138;-76
2021/12/28 09:41:12;;;;;;;85.55;40.88;;;;;;;-4.47;80.64;100717.66;1724557;83;21164;-76
2021/12/28 09:43:39;;;;;;;71.82;38.80;;;;;;;-4.45;80.49;100716.13;1733404;81;21131;-77
2021/12/28 09:46:07;;;;;;;90.50;42.00;;;;;;;-4.43;80.48;100721.92;1724734;83;21756;-76
2021/12/28 09:48:34;;;;;;;77.58;40.85;;;;;;;-4.38;80.43;100715.87;1724647;81;21081;-80
2021/12/28 09:51:01;;;;;;;82.82;40.28;;;;;;;-4.37;80.37;100722.42;1724789;83;21142;-80
2021/12/28 09:53:27;;;;;;;85.80;40.80;;;;;;;-4.37;80.30;100722.82;1724696;81;21868;-80
2021/12/28 09:55:54;;;;;;;84.13;41.95;;;;;;;-4.33;80.38;100709.45;1724716;83;21585;-76
2021/12/28 09:58:21;;;;;;;82.62;40.63;;;;;;;-4.31;80.23;100701.48;1724666;83;21947;-75
2021/12/28 10:00:47;;;;;;;77.55;40.52;;;;;;;-4.29;80.10;100702.50;1724843;83;21333;-76
2021/12/28 10:03:14;;;;;;;82.95;41.13;;;;;;;-4.30;80.01;100696.84;1724657;83;21308;-76
2021/12/28 10:05:41;;;;;;;76.53;40.43;;;;;;;-4.24;80.05;100702.88;1698030;83;21069;-76
2021/12/28 10:08:08;;;;;;;76.70;39.38;;;;;;;-4.23;79.99;100694.01;1724814;82;21415;-81
2021/12/28 10:10:38;;;;;;;75.90;40.38;;;;;;;-4.18;80.10;100697.87;1724900;82;22388;-81
2021/12/28 10:13:08;;;;;;;83.10;39.30;;;;;;;-4.14;79.94;100683.59;1738923;81;21073;-81
2021/12/28 10:15:39;;;;;;;87.70;43.23;;;;;;;-4.15;79.71;100690.78;1754745;81;21085;-80
2021/12/28 10:18:11;;;;;;;76.12;38.63;;;;;;;-4.15;79.78;100681.42;1755088;80;22331;-82
2021/12/28 10:20:54;;;;;;;87.00;41.77;;;;;;;-4.15;79.70;100677.93;1755402;81;21104;-81
2021/12/28 10:23:25;;;;;;;;;;;;;;;-4.14;79.71;100671.64;1757592;81;21748;-76
2021/12/28 10:26:04;;;;;;;86.80;41.05;;;;;;;-4.06;79.82;100671.37;1755161;81;20780;-76
2021/12/28 10:28:37;;;;;;;87.45;44.08;;;;;;;-3.99;79.80;100667.25;1754953;81;21057;-75
2021/12/28 10:31:07;;;;;;;87.17;41.88;;;;;;;-4.13;79.71;100633.61;1754975;81;21105;-76
2021/12/28 10:33:36;;;;;;;79.77;41.20;;;;;;;-3.92;79.80;100662.72;1755223;81;21168;-75
2021/12/28 10:36:06;;;;;;;85.77;40.88;;;;;;;-3.91;79.75;100662.33;1755251;81;22671;-77
2021/12/28 10:38:36;;;;;;;77.32;40.15;;;;;;;-3.95;79.72;100639.32;1752447;81;21078;-77
2021/12/28 10:41:12;;;;;;;95.07;49.70;;;;;;;-3.78;79.79;100657.39;1755118;81;21097;-78
2021/12/28 10:43:41;;;;;;;85.62;43.75;;;;;;;-3.74;79.69;100650.83;1749950;81;21156;-78
2021/12/28 10:46:14;;;;;;;79.05;39.20;;;;;;;-3.67;79.61;100645.80;1725102;82;21120;-79
2021/12/28 10:48:50;;;;;;;78.78;39.33;;;;;;;-3.60;79.54;100637.80;1724984;83;21839;-82
2021/12/28 10:51:22;;;;;;;84.10;41.92;;;;;;;-3.48;79.67;100639.14;1725005;83;21169;-78
2021/12/28 10:54:07;;;;;;;81.37;41.48;;;;;;;-3.35;79.72;100633.78;1725170;82;21270;-78
2021/12/28 10:56:32;;;;;;;75.95;38.65;;;;;;;-3.27;79.58;100630.52;1724295;81;21077;-77
2021/12/28 10:58:59;;;;;;;80.80;41.15;;;;;;;-3.29;79.21;100632.08;1740394;81;21069;-76
2021/12/28 11:01:29;;;;;;;76.80;41.58;;;;;;;-3.29;79.15;100637.63;1755336;81;21721;-76
2021/12/28 11:03:58;;;;;;;87.57;46.98;;;;;;;-3.28;79.21;100620.13;1755051;81;21073;-78
2021/12/28 11:06:28;;;;;;;80.28;42.20;;;;;;;-3.23;79.16;100621.36;1755241;81;21137;-77
2021/12/28 11:08:58;;;;;;;84.85;44.90;;;;;;;-3.20;79.01;100613.89;1754949;80;21086;-82